createdAt,value
2022-11-23T00:01:33.195Z,40.25
2022-11-23T00:04:03.516Z,40.11
2022-11-23T00:06:31.680Z,40.30
2022-11-23T00:08:59.650Z,40.36
2022-11-23T00:11:28.653Z,40.02
2022-11-23T00:13:56.769Z,40.38
2022-11-23T00:16:27.525Z,40.34
2022-11-23T00:18:57.441Z,40.47
2022-11-23T00:21:27.212Z,40.27
2022-11-23T00:23:54.945Z,40.41
2022-11-23T00:26:23.153Z,40.12
2022-11-23T00:28:51.375Z,40.18
2022-11-23T00:31:23.243Z,40.21
2022-11-23T00:33:53.212Z,40.37
2022-11-23T00:36:22.361Z,40.48
2022-11-23T00:38:50.945Z,40.62
2022-11-23T00:41:21.215Z,40.98
2022-11-23T00:43:49.714Z,40.71
2022-11-23T00:46:19.096Z,40.82
2022-11-23T00:48:50.480Z,41.13
2022-11-23T00:51:23.343Z,40.98
2022-11-23T00:53:52.155Z,41.19
2022-11-23T00:56:20.917Z,41.34
2022-11-23T00:58:53.581Z,40.91
2022-11-23T01:01:25.625Z,40.97
2022-11-23T01:03:59.783Z,41.21
2022-11-23T01:06:33.156Z,40.80
2022-11-23T01:09:04.701Z,40.87
2022-11-23T01:11:33.273Z,41.12
2022-11-23T01:14:02.080Z,41.47
2022-11-23T01:16:32.705Z,41.98
2022-11-23T01:19:20.665Z,41.90
2022-11-23T01:21:50.547Z,41.76
2022-11-23T01:24:21.394Z,41.39
2022-11-23T01:26:53.696Z,41.48
2022-11-23T01:29:22.953Z,41.70
2022-11-23T01:31:50.778Z,41.70
2022-11-23T01:34:18.741Z,41.79
2022-11-23T01:36:49.331Z,42.12
2022-11-23T01:39:17.435Z,41.77
2022-11-23T01:41:49.196Z,41.87
2022-11-23T01:44:33.994Z,41.78
2022-11-23T01:47:08.321Z,41.91
2022-11-23T01:49:49.760Z,42.06
2022-11-23T01:52:21.948Z,42.15
2022-11-23T01:54:54.682Z,41.96
2022-11-23T01:57:36.191Z,41.89
2022-11-23T02:00:04.455Z,42.02
2022-11-23T02:03:04.893Z,42.22
2022-11-23T02:05:43.030Z,42.39
2022-11-23T02:08:12.016Z,41.76
2022-11-23T02:10:39.726Z,42.17
2022-11-23T02:13:13.112Z,42.23
2022-11-23T02:15:41.328Z,42.23
2022-11-23T02:18:21.206Z,42.29
2022-11-23T02:20:50.926Z,42.34
2022-11-23T02:23:34.125Z,42.42
2022-11-23T02:26:08.961Z,42.53
2022-11-23T02:28:42.241Z,42.39
2022-11-23T02:31:10.179Z,42.19
2022-11-23T02:33:39.615Z,42.43
2022-11-23T02:36:32.416Z,42.54
2022-11-23T02:39:17.324Z,42.36
2022-11-23T02:41:57.318Z,42.20
2022-11-23T02:47:20.976Z,42.48
2022-11-23T02:49:49.823Z,42.33
2022-11-23T02:52:19.320Z,42.15
2022-11-23T02:54:47.338Z,42.33
2022-11-23T02:57:15.543Z,42.49
2022-11-23T02:59:47.620Z,42.55
2022-11-23T03:02:15.261Z,42.21
2022-11-23T03:04:42.993Z,42.72
2022-11-23T03:07:10.738Z,42.56
2022-11-23T03:09:39.779Z,42.49
2022-11-23T03:12:07.680Z,42.70
2022-11-23T03:14:35.402Z,42.32
2022-11-23T03:17:03.251Z,42.87
2022-11-23T03:19:36.277Z,42.80
2022-11-23T03:22:04.479Z,42.80
2022-11-23T03:24:33.265Z,42.70
2022-11-23T03:27:03.837Z,42.93
2022-11-23T03:29:31.842Z,42.76
2022-11-23T03:32:03.528Z,43.02
2022-11-23T03:34:31.346Z,42.57
2022-11-23T03:36:58.971Z,42.72
2022-11-23T03:39:26.804Z,43.00
2022-11-23T03:42:17.331Z,42.69
2022-11-23T03:44:46.530Z,42.79
2022-11-23T03:47:16.622Z,42.79
2022-11-23T03:49:44.645Z,42.67
2022-11-23T03:52:12.658Z,43.30
2022-11-23T03:54:40.312Z,43.08
2022-11-23T03:57:09.610Z,42.89
2022-11-23T03:59:38.364Z,43.01
2022-11-23T04:02:08.236Z,42.65
2022-11-23T04:04:48.362Z,42.78
2022-11-23T04:07:47.880Z,42.70
2022-11-23T04:10:17.048Z,43.03
2022-11-23T04:13:00.028Z,43.00
2022-11-23T04:15:29.034Z,43.25
2022-11-23T04:17:56.890Z,43.12
2022-11-23T04:20:24.747Z,43.40
2022-11-23T04:22:52.539Z,43.21
2022-11-23T04:25:20.252Z,43.53
2022-11-23T04:27:51.082Z,43.37
2022-11-23T04:30:19.124Z,43.30
2022-11-23T04:32:48.506Z,43.21
2022-11-23T04:35:16.329Z,43.34
2022-11-23T04:37:47.466Z,43.37
2022-11-23T04:40:15.903Z,43.39
2022-11-23T04:42:53.847Z,43.38
2022-11-23T04:45:24.563Z,43.18
2022-11-23T04:47:55.019Z,43.63
2022-11-23T04:50:25.274Z,43.43
2022-11-23T04:52:56.008Z,43.47
2022-11-23T04:55:30.524Z,43.49
2022-11-23T04:58:02.358Z,43.63
2022-11-23T05:00:32.551Z,43.61
2022-11-23T05:03:01.701Z,43.66
2022-11-23T05:05:33.703Z,43.55
2022-11-23T05:08:03.198Z,43.74
2022-11-23T05:10:49.350Z,43.87
2022-11-23T05:13:17.575Z,43.74
2022-11-23T05:15:46.318Z,43.99
2022-11-23T05:18:18.816Z,44.18
2022-11-23T05:20:47.255Z,44.17
2022-11-23T05:23:16.747Z,44.10
2022-11-23T05:25:46.102Z,44.25
2022-11-23T05:28:39.671Z,44.48
2022-11-23T05:31:09.530Z,44.59
2022-11-23T05:33:37.986Z,44.17
2022-11-23T05:36:08.860Z,44.43
2022-11-23T05:38:40.279Z,44.65
2022-11-23T05:41:13.889Z,44.81
2022-11-23T05:43:43.749Z,44.65
2022-11-23T05:46:16.369Z,44.33
2022-11-23T05:48:45.871Z,44.73
2022-11-23T05:51:14.396Z,44.53
2022-11-23T05:53:46.181Z,44.84
2022-11-23T05:56:38.816Z,45.04
2022-11-23T05:59:16.204Z,45.02
2022-11-23T06:01:49.186Z,45.04
2022-11-23T06:04:27.687Z,45.49
2022-11-23T06:07:01.331Z,45.71
2022-11-23T06:09:37.120Z,45.58
2022-11-23T06:12:09.515Z,45.69
2022-11-23T06:14:37.599Z,45.60
2022-11-23T06:17:05.325Z,45.48
2022-11-23T06:19:53.205Z,45.82
2022-11-23T06:22:20.952Z,45.86
2022-11-23T06:24:59.137Z,46.10
2022-11-23T06:27:38.059Z,46.08
2022-11-23T06:30:14.928Z,46.57
2022-11-23T06:32:43.217Z,46.21
2022-11-23T06:35:11.203Z,46.37
2022-11-23T06:37:41.624Z,46.09
2022-11-23T06:40:12.600Z,46.26
2022-11-23T06:42:41.416Z,46.19
2022-11-23T06:45:18.989Z,46.13
2022-11-23T06:47:48.648Z,45.83
2022-11-23T06:50:16.411Z,45.79
2022-11-23T06:52:46.428Z,45.66
2022-11-23T06:55:14.614Z,46.01
2022-11-23T06:57:42.481Z,46.22
2022-11-23T07:00:12.550Z,46.31
2022-11-23T07:02:40.448Z,47.03
2022-11-23T07:05:08.962Z,47.27
2022-11-23T07:07:38.814Z,47.01
2022-11-23T07:10:13.803Z,46.46
2022-11-23T07:12:47.022Z,46.19
2022-11-23T07:15:17.476Z,46.14
2022-11-23T07:17:46.105Z,45.85
2022-11-23T07:20:14.299Z,46.15
2022-11-23T07:22:42.207Z,46.08
2022-11-23T07:25:11.514Z,45.87
2022-11-23T07:27:39.277Z,45.95
2022-11-23T07:30:09.189Z,46.10
2022-11-23T07:32:37.086Z,46.04
2022-11-23T07:35:05.135Z,45.95
2022-11-23T07:37:36.936Z,46.02
2022-11-23T07:40:06.263Z,45.95
2022-11-23T07:42:41.388Z,46.41
2022-11-23T07:45:13.493Z,46.59
2022-11-23T07:47:45.839Z,46.52
2022-11-23T07:50:14.284Z,46.22
2022-11-23T07:52:42.194Z,45.99
2022-11-23T07:55:10.033Z,46.10
2022-11-23T07:57:37.648Z,46.26
2022-11-23T08:00:06.411Z,47.59
2022-11-23T08:02:52.824Z,47.88
2022-11-23T08:05:26.719Z,47.46
2022-11-23T08:08:01.597Z,47.12
2022-11-23T08:10:31.820Z,46.44
2022-11-23T08:13:04.675Z,46.35
2022-11-23T08:15:32.798Z,46.34
2022-11-23T08:18:03.280Z,46.66
2022-11-23T08:20:31.789Z,46.59
2022-11-23T08:22:59.482Z,45.97
2022-11-23T08:25:29.417Z,46.06
2022-11-23T08:28:02.305Z,46.56
2022-11-23T08:30:31.762Z,46.89
2022-11-23T08:33:00.039Z,46.59
2022-11-23T08:35:27.899Z,46.22
2022-11-23T08:37:55.550Z,46.50
2022-11-23T08:40:25.678Z,46.88
2022-11-23T08:42:54.546Z,46.85
2022-11-23T08:45:22.516Z,46.61
2022-11-23T08:47:51.202Z,47.02
2022-11-23T08:50:22.109Z,46.87
2022-11-23T08:52:58.432Z,46.95
2022-11-23T08:55:27.696Z,46.77
2022-11-23T08:57:58.929Z,46.43
2022-11-23T09:00:27.704Z,46.56
2022-11-23T09:02:55.605Z,46.70
2022-11-23T09:05:23.418Z,46.79
2022-11-23T09:07:51.184Z,46.22
2022-11-23T09:10:19.475Z,46.59
2022-11-23T09:12:48.027Z,46.27
2022-11-23T09:15:16.079Z,46.22
2022-11-23T09:17:44.250Z,46.39
2022-11-23T09:20:13.090Z,46.38
2022-11-23T09:22:40.903Z,46.05
2022-11-23T09:25:10.582Z,46.10
2022-11-23T09:27:39.110Z,46.02
2022-11-23T09:30:07.379Z,46.48
2022-11-23T09:32:35.163Z,46.43
2022-11-23T09:35:03.153Z,46.34
2022-11-23T09:37:30.825Z,46.47
2022-11-23T09:39:58.822Z,46.16
2022-11-23T09:42:54.294Z,46.81
2022-11-23T09:45:43.353Z,46.88
2022-11-23T09:48:13.780Z,46.28
2022-11-23T09:50:53.366Z,46.37
2022-11-23T09:53:29.490Z,46.69
2022-11-23T09:55:58.263Z,46.81
2022-11-23T09:58:33.482Z,46.56
2022-11-23T10:01:05.532Z,46.66
2022-11-23T10:03:48.260Z,46.81
2022-11-23T10:06:29.674Z,46.23
2022-11-23T10:08:57.420Z,46.53
2022-11-23T10:12:00.355Z,47.03
2022-11-23T10:14:56.453Z,46.97
2022-11-23T10:17:45.866Z,46.76
2022-11-23T10:20:38.040Z,47.02
2022-11-23T10:23:21.475Z,46.75
2022-11-23T10:25:51.991Z,46.63
2022-11-23T10:28:22.505Z,46.75
2022-11-23T10:31:15.182Z,46.79
2022-11-23T10:34:11.164Z,47.02
2022-11-23T10:36:39.819Z,46.63
2022-11-23T10:39:25.820Z,46.59
2022-11-23T10:41:59.387Z,46.51
2022-11-23T10:44:38.386Z,46.81
2022-11-23T10:47:06.161Z,46.31
2022-11-23T10:49:35.352Z,46.93
2022-11-23T10:52:06.867Z,46.42
2022-11-23T10:54:56.488Z,46.59
2022-11-23T10:57:42.404Z,46.64
2022-11-23T11:00:13.378Z,46.50
2022-11-23T11:02:54.435Z,46.70
2022-11-23T11:08:30.863Z,46.57
2022-11-23T11:11:00.590Z,46.97
2022-11-23T11:13:32.698Z,46.70
2022-11-23T11:16:05.380Z,46.71
2022-11-23T11:18:35.919Z,46.75
2022-11-23T11:21:32.797Z,46.86
2022-11-23T11:24:00.433Z,46.64
2022-11-23T11:26:30.473Z,46.84
2022-11-23T11:29:02.383Z,46.74
2022-11-23T11:32:00.970Z,47.19
2022-11-23T11:34:46.275Z,46.81
2022-11-23T11:37:48.326Z,47.51
2022-11-23T11:40:21.996Z,47.28
2022-11-23T11:42:57.005Z,47.44
2022-11-23T11:46:13.202Z,47.41
2022-11-23T11:48:45.216Z,47.73
2022-11-23T11:51:38.300Z,47.80
2022-11-23T11:54:40.118Z,47.96
2022-11-23T11:57:20.926Z,47.97
2022-11-23T11:59:53.212Z,48.16
2022-11-23T12:02:23.654Z,48.31
2022-11-23T12:05:25.581Z,48.69
2022-11-23T12:08:00.013Z,47.64
2022-11-23T12:10:34.279Z,48.16
2022-11-23T12:13:01.921Z,47.91
2022-11-23T12:15:49.581Z,47.99
2022-11-23T12:18:45.740Z,48.17
2022-11-23T12:21:22.792Z,48.08
2022-11-23T12:24:00.489Z,47.73
2022-11-23T12:26:31.209Z,47.92
2022-11-23T12:29:26.766Z,48.00
2022-11-23T12:32:07.843Z,47.83
2022-11-23T12:35:06.027Z,48.00
2022-11-23T12:37:58.989Z,47.68
2022-11-23T12:40:46.936Z,47.72
2022-11-23T12:43:36.607Z,48.03
2022-11-23T12:46:10.847Z,47.97
2022-11-23T12:48:55.898Z,48.28
2022-11-23T12:51:57.532Z,47.91
2022-11-23T12:54:34.869Z,47.93
2022-11-23T12:57:14.153Z,48.31
2022-11-23T13:00:04.993Z,47.85
2022-11-23T13:02:48.713Z,47.93
2022-11-23T13:05:31.789Z,48.26
2022-11-23T13:08:11.553Z,48.11
2022-11-23T13:11:01.796Z,48.36
2022-11-23T13:13:51.369Z,48.34
2022-11-23T13:16:33.684Z,48.33
2022-11-23T13:19:33.964Z,48.32
2022-11-23T13:22:05.459Z,48.07
2022-11-23T13:24:36.169Z,48.24
2022-11-23T13:27:13.980Z,48.17
2022-11-23T13:29:51.535Z,47.84
2022-11-23T13:32:46.224Z,48.21
2022-11-23T13:35:16.887Z,47.97
2022-11-23T13:38:13.836Z,48.69
2022-11-23T13:40:43.902Z,48.72
2022-11-23T13:43:27.164Z,49.37
2022-11-23T13:46:16.817Z,49.55
2022-11-23T13:48:56.731Z,49.29
2022-11-23T13:51:33.812Z,49.65
2022-11-23T13:54:19.714Z,50.04
2022-11-23T13:57:01.670Z,50.25
2022-11-23T13:59:32.366Z,50.09
2022-11-23T14:02:11.127Z,50.32
2022-11-23T14:04:39.050Z,50.25
2022-11-23T14:07:26.693Z,50.43
2022-11-23T14:10:17.104Z,51.18
2022-11-23T14:13:19.559Z,49.89
2022-11-23T14:15:57.853Z,49.36
2022-11-23T14:18:38.451Z,49.63
2022-11-23T14:21:15.044Z,50.18
2022-11-23T14:24:23.525Z,48.73
2022-11-23T14:29:28.787Z,47.80
2022-11-23T14:32:18.242Z,48.31
2022-11-23T14:35:10.983Z,47.94
2022-11-23T14:38:09.358Z,47.88
2022-11-23T14:41:12.471Z,47.81
2022-11-23T14:43:42.737Z,47.83
2022-11-23T14:46:20.425Z,47.90
2022-11-23T14:48:49.783Z,47.88
2022-11-23T14:51:26.883Z,47.50
2022-11-23T14:53:55.759Z,47.97
2022-11-23T14:56:23.314Z,48.04
2022-11-23T14:58:51.744Z,48.01
2022-11-23T15:01:23.214Z,48.21
2022-11-23T15:04:10.959Z,48.36
2022-11-23T15:06:47.472Z,48.21
2022-11-23T15:09:57.658Z,48.13
2022-11-23T15:12:28.378Z,48.10
2022-11-23T15:14:59.784Z,48.26
2022-11-23T15:17:27.628Z,48.24
2022-11-23T15:20:04.659Z,48.49
2022-11-23T15:22:35.116Z,48.17
2022-11-23T15:25:10.417Z,48.20
2022-11-23T15:27:41.722Z,48.23
2022-11-23T15:30:22.449Z,48.11
2022-11-23T15:33:04.626Z,48.75
2022-11-23T15:35:35.734Z,48.77
2022-11-23T15:38:06.883Z,49.24
2022-11-23T15:40:37.915Z,49.54
2022-11-23T15:43:05.621Z,49.43
2022-11-23T15:45:35.097Z,49.35
2022-11-23T15:48:05.477Z,49.49
2022-11-23T15:50:34.419Z,49.07
2022-11-23T15:53:09.945Z,49.37
2022-11-23T15:55:37.621Z,49.42
2022-11-23T15:58:08.245Z,49.43
2022-11-23T16:00:36.968Z,49.66
2022-11-23T16:03:34.418Z,50.14
2022-11-23T16:06:15.015Z,50.12
2022-11-23T16:08:42.581Z,49.65
2022-11-23T16:11:30.985Z,49.67
2022-11-23T16:14:20.381Z,50.19
2022-11-23T16:16:58.916Z,49.92
2022-11-23T16:19:32.400Z,50.66
2022-11-23T16:22:05.119Z,49.96
2022-11-23T16:24:35.133Z,50.37
2022-11-23T16:27:13.985Z,50.58
2022-11-23T16:29:42.282Z,50.95
2022-11-23T16:32:22.035Z,50.68
2022-11-23T16:34:50.168Z,50.17
2022-11-23T16:37:18.418Z,49.78
2022-11-23T16:39:46.606Z,49.07
2022-11-23T16:42:17.768Z,49.39
2022-11-23T16:44:45.599Z,48.74
2022-11-23T16:47:27.164Z,49.23
2022-11-23T16:49:55.089Z,49.17
2022-11-23T16:52:24.740Z,49.18
2022-11-23T16:54:53.425Z,49.12
2022-11-23T16:57:29.068Z,48.98
2022-11-23T16:59:58.839Z,49.07
2022-11-23T17:02:26.715Z,48.71
2022-11-23T17:04:54.911Z,48.71
2022-11-23T17:07:22.734Z,48.30
2022-11-23T17:09:50.534Z,48.70
2022-11-23T17:12:20.460Z,48.55
2022-11-23T17:14:49.638Z,48.80
2022-11-23T17:17:22.245Z,48.29
2022-11-23T17:19:54.291Z,48.10
2022-11-23T17:22:23.186Z,48.24
2022-11-23T17:24:53.775Z,48.27
2022-11-23T17:27:25.551Z,48.09
2022-11-23T17:29:59.329Z,48.07
2022-11-23T17:32:28.791Z,48.54
2022-11-23T17:34:57.797Z,48.30
2022-11-23T17:37:26.949Z,48.24
2022-11-23T17:39:55.750Z,48.08
2022-11-23T17:42:23.903Z,48.99
2022-11-23T17:44:52.961Z,49.04
2022-11-23T17:47:30.938Z,49.28
2022-11-23T17:50:01.796Z,48.82
2022-11-23T17:52:33.391Z,48.85
2022-11-23T17:55:01.347Z,48.83
2022-11-23T17:57:37.990Z,48.84
2022-11-23T18:00:14.579Z,48.55
2022-11-23T18:02:42.301Z,48.80
2022-11-23T18:05:12.341Z,48.84
2022-11-23T18:07:44.050Z,48.64
2022-11-23T18:10:13.932Z,48.86
2022-11-23T18:12:41.799Z,48.67
2022-11-23T18:15:10.106Z,49.63
2022-11-23T18:17:38.185Z,49.68
2022-11-23T18:20:08.372Z,49.97
2022-11-23T18:22:36.284Z,50.05
2022-11-23T18:25:04.139Z,50.67
2022-11-23T18:27:32.036Z,50.00
2022-11-23T18:29:59.882Z,49.50
2022-11-23T18:32:27.526Z,49.36
2022-11-23T18:34:55.213Z,49.53
2022-11-23T18:37:23.075Z,49.29
2022-11-23T18:39:50.972Z,49.22
2022-11-23T18:42:18.912Z,49.25
2022-11-23T18:44:46.681Z,48.79
2022-11-23T18:47:14.333Z,49.15
2022-11-23T18:49:42.124Z,49.19
2022-11-23T18:52:13.992Z,49.21
2022-11-23T18:54:41.754Z,48.81
2022-11-23T18:57:10.075Z,49.23
2022-11-23T19:02:25.862Z,49.02
2022-11-23T19:04:53.669Z,48.80
2022-11-23T19:07:26.629Z,49.25
2022-11-23T19:09:55.068Z,49.41
2022-11-23T19:12:22.983Z,49.36
2022-11-23T19:14:50.783Z,49.60
2022-11-23T19:17:18.461Z,49.32
2022-11-23T19:19:46.262Z,49.80
2022-11-23T19:22:13.967Z,49.63
2022-11-23T19:24:41.819Z,50.07
2022-11-23T19:27:10.007Z,49.91
2022-11-23T19:29:38.140Z,49.77
2022-11-23T19:32:06.197Z,50.76
2022-11-23T19:34:33.930Z,51.10
2022-11-23T19:37:01.965Z,51.37
2022-11-23T19:39:31.231Z,51.02
2022-11-23T19:41:59.802Z,50.65
2022-11-23T19:44:27.900Z,50.29
2022-11-23T19:46:55.769Z,50.33
2022-11-23T19:49:23.653Z,50.09
2022-11-23T19:51:53.642Z,50.14
2022-11-23T19:54:21.278Z,49.57
2022-11-23T19:56:52.261Z,50.08
2022-11-23T19:59:20.235Z,49.23
2022-11-23T20:01:48.154Z,49.25
2022-11-23T20:04:16.072Z,49.40
2022-11-23T20:06:44.113Z,49.48
2022-11-23T20:09:23.065Z,49.23
2022-11-23T20:11:51.695Z,49.12
2022-11-23T20:14:22.676Z,48.80
2022-11-23T20:16:51.827Z,48.39
2022-11-23T20:19:19.594Z,48.22
2022-11-23T20:21:47.522Z,47.96
2022-11-23T20:24:15.313Z,47.49
2022-11-23T20:26:43.607Z,47.45
2022-11-23T20:29:11.715Z,47.04
2022-11-23T20:31:39.694Z,46.91
2022-11-23T20:34:10.010Z,47.14
2022-11-23T20:36:41.036Z,47.24
2022-11-23T20:39:11.149Z,46.93
2022-11-23T20:41:39.268Z,46.75
2022-11-23T20:44:11.587Z,46.95
2022-11-23T20:49:28.035Z,46.84
2022-11-23T20:51:55.741Z,47.01
2022-11-23T20:54:23.628Z,47.95
2022-11-23T20:56:51.407Z,48.75
2022-11-23T20:59:20.002Z,47.20
2022-11-23T21:01:48.160Z,47.23
2022-11-23T21:04:16.011Z,47.02
2022-11-23T21:06:43.986Z,47.53
2022-11-23T21:09:12.351Z,47.22
2022-11-23T21:11:58.573Z,47.31
2022-11-23T21:14:31.724Z,47.74
2022-11-23T21:17:01.090Z,47.22
2022-11-23T21:19:34.565Z,47.44
2022-11-23T21:22:05.410Z,47.18
2022-11-23T21:24:35.715Z,47.40
2022-11-23T21:27:05.576Z,47.23
2022-11-23T21:29:33.758Z,47.61
2022-11-23T21:32:04.428Z,47.63
2022-11-23T21:34:32.972Z,48.04
2022-11-23T21:37:01.147Z,48.53
2022-11-23T21:39:31.170Z,48.55
2022-11-23T21:41:59.149Z,48.37
2022-11-23T21:44:26.841Z,48.94
2022-11-23T21:46:54.784Z,49.13
2022-11-23T21:49:22.648Z,48.84
2022-11-23T21:51:50.482Z,48.68
2022-11-23T21:54:18.264Z,48.68
2022-11-23T21:56:46.563Z,48.68
2022-11-23T21:59:14.606Z,48.84
2022-11-23T22:01:42.832Z,48.79
2022-11-23T22:04:13.425Z,48.78
2022-11-23T22:06:42.341Z,48.75
2022-11-23T22:09:11.708Z,48.81
2022-11-23T22:11:41.830Z,48.70
2022-11-23T22:14:16.323Z,48.57
2022-11-23T22:16:54.472Z,49.02
2022-11-23T22:19:22.665Z,48.91
2022-11-23T22:21:50.582Z,48.93
2022-11-23T22:24:19.744Z,48.67
2022-11-23T22:26:48.059Z,48.37
2022-11-23T22:29:16.144Z,48.73
2022-11-23T22:31:44.250Z,48.89
2022-11-23T22:34:13.541Z,48.52
2022-11-23T22:36:42.271Z,48.56
2022-11-23T22:39:10.439Z,48.70
2022-11-23T22:41:39.550Z,48.36
2022-11-23T22:44:09.533Z,48.67
2022-11-23T22:46:39.601Z,48.35
2022-11-23T22:49:07.514Z,48.56
2022-11-23T22:51:36.773Z,48.44
2022-11-23T22:54:04.825Z,48.66
2022-11-23T22:56:32.825Z,48.14
2022-11-23T22:59:01.021Z,48.50
2022-11-23T23:01:31.009Z,48.40
2022-11-23T23:04:01.619Z,48.48
2022-11-23T23:06:34.836Z,48.22
2022-11-23T23:09:05.093Z,48.07
2022-11-23T23:11:34.628Z,47.85
2022-11-23T23:14:02.396Z,48.04
2022-11-23T23:16:30.456Z,48.23
2022-11-23T23:18:59.549Z,48.01
2022-11-23T23:21:28.706Z,48.13
2022-11-23T23:23:58.978Z,47.98
2022-11-23T23:26:28.571Z,47.91
2022-11-23T23:28:59.282Z,47.97
2022-11-23T23:31:28.324Z,47.95
2022-11-23T23:33:57.367Z,47.81
2022-11-23T23:36:25.030Z,47.51
2022-11-23T23:38:52.881Z,47.49
2022-11-23T23:41:20.936Z,47.69
2022-11-23T23:43:48.778Z,47.62
2022-11-23T23:46:16.742Z,47.37
2022-11-23T23:48:45.080Z,47.38
2022-11-23T23:51:24.064Z,47.34
2022-11-23T23:53:52.903Z,47.17
2022-11-23T23:56:23.764Z,47.00
2022-11-23T23:58:52.191Z,46.82
